sensor_id;sensor_type;location;lat;lon;timestamp;P1;durP1;ratioP1;P2;durP2;ratioP2
21424;SDS011;10873;51.132;16.848;2024-01-27T00:01:12;3.80;;;1.60;;
21424;SDS011;10873;51.132;16.848;2024-01-27T00:03:44;4.53;;;1.60;;
21424;SDS011;10873;51.132;16.848;2024-01-27T00:06:10;3.92;;;1.67;;
21424;SDS011;10873;51.132;16.848;2024-01-27T00:08:38;4.47;;;1.80;;
21424;SDS011;10873;51.132;16.848;2024-01-27T00:11:04;2.90;;;1.40;;
21424;SDS011;10873;51.132;16.848;2024-01-27T00:13:32;3.70;;;1.42;;
21424;SDS011;10873;51.132;16.848;2024-01-27T00:15:58;3.85;;;1.67;;
21424;SDS011;10873;51.132;16.848;2024-01-27T00:18:25;5.25;;;1.95;;
21424;SDS011;10873;51.132;16.848;2024-01-27T00:20:51;4.72;;;1.90;;
21424;SDS011;10873;51.132;16.848;2024-01-27T00:23:17;3.78;;;1.63;;
21424;SDS011;10873;51.132;16.848;2024-01-27T00:25:48;6.90;;;2.00;;
21424;SDS011;10873;51.132;16.848;2024-01-27T00:28:14;5.10;;;2.08;;
21424;SDS011;10873;51.132;16.848;2024-01-27T00:30:40;5.00;;;1.70;;
21424;SDS011;10873;51.132;16.848;2024-01-27T00:33:07;4.55;;;1.83;;
21424;SDS011;10873;51.132;16.848;2024-01-27T00:35:33;5.00;;;1.58;;
21424;SDS011;10873;51.132;16.848;2024-01-27T00:38:03;4.50;;;1.90;;
21424;SDS011;10873;51.132;16.848;2024-01-27T00:40:30;5.40;;;1.73;;
21424;SDS011;10873;51.132;16.848;2024-01-27T00:42:58;6.57;;;1.80;;
21424;SDS011;10873;51.132;16.848;2024-01-27T00:45:24;4.38;;;1.63;;
21424;SDS011;10873;51.132;16.848;2024-01-27T00:47:53;5.05;;;1.65;;
21424;SDS011;10873;51.132;16.848;2024-01-27T00:50:19;3.20;;;1.63;;
21424;SDS011;10873;51.132;16.848;2024-01-27T00:52:45;4.65;;;2.00;;
21424;SDS011;10873;51.132;16.848;2024-01-27T00:55:11;4.13;;;1.45;;
21424;SDS011;10873;51.132;16.848;2024-01-27T00:57:38;5.18;;;1.50;;
21424;SDS011;10873;51.132;16.848;2024-01-27T01:00:09;5.05;;;1.92;;
21424;SDS011;10873;51.132;16.848;2024-01-27T01:02:37;6.30;;;1.80;;
21424;SDS011;10873;51.132;16.848;2024-01-27T01:05:04;6.13;;;2.08;;
21424;SDS011;10873;51.132;16.848;2024-01-27T01:07:31;5.90;;;1.70;;
21424;SDS011;10873;51.132;16.848;2024-01-27T01:09:57;7.38;;;1.70;;
21424;SDS011;10873;51.132;16.848;2024-01-27T01:12:23;4.63;;;2.00;;
21424;SDS011;10873;51.132;16.848;2024-01-27T01:14:53;4.15;;;1.65;;
21424;SDS011;10873;51.132;16.848;2024-01-27T01:17:21;4.45;;;1.50;;
21424;SDS011;10873;51.132;16.848;2024-01-27T01:19:47;3.95;;;1.40;;
21424;SDS011;10873;51.132;16.848;2024-01-27T01:22:13;4.97;;;1.75;;
21424;SDS011;10873;51.132;16.848;2024-01-27T01:24:42;7.55;;;2.28;;
21424;SDS011;10873;51.132;16.848;2024-01-27T01:27:11;6.07;;;2.00;;
21424;SDS011;10873;51.132;16.848;2024-01-27T01:29:37;5.40;;;1.60;;
21424;SDS011;10873;51.132;16.848;2024-01-27T01:32:07;3.55;;;1.60;;
21424;SDS011;10873;51.132;16.848;2024-01-27T01:34:35;7.18;;;2.08;;
21424;SDS011;10873;51.132;16.848;2024-01-27T01:37:01;5.13;;;2.03;;
21424;SDS011;10873;51.132;16.848;2024-01-27T01:39:27;5.95;;;1.70;;
21424;SDS011;10873;51.132;16.848;2024-01-27T01:41:54;5.93;;;2.05;;
21424;SDS011;10873;51.132;16.848;2024-01-27T01:44:20;4.05;;;1.73;;
21424;SDS011;10873;51.132;16.848;2024-01-27T01:46:47;4.68;;;1.52;;
21424;SDS011;10873;51.132;16.848;2024-01-27T01:49:14;4.85;;;1.70;;
21424;SDS011;10873;51.132;16.848;2024-01-27T01:51:43;4.80;;;1.70;;
21424;SDS011;10873;51.132;16.848;2024-01-27T01:54:09;5.47;;;1.65;;
21424;SDS011;10873;51.132;16.848;2024-01-27T01:56:36;4.65;;;1.90;;
21424;SDS011;10873;51.132;16.848;2024-01-27T01:59:02;4.82;;;1.70;;
21424;SDS011;10873;51.132;16.848;2024-01-27T02:01:29;8.77;;;1.90;;
21424;SDS011;10873;51.132;16.848;2024-01-27T02:03:55;6.22;;;1.92;;
21424;SDS011;10873;51.132;16.848;2024-01-27T02:06:21;5.13;;;1.60;;
21424;SDS011;10873;51.132;16.848;2024-01-27T02:08:50;4.30;;;1.80;;
21424;SDS011;10873;51.132;16.848;2024-01-27T02:11:17;4.57;;;2.20;;
21424;SDS011;10873;51.132;16.848;2024-01-27T02:13:43;4.85;;;1.60;;
21424;SDS011;10873;51.132;16.848;2024-01-27T02:16:09;3.85;;;1.42;;
21424;SDS011;10873;51.132;16.848;2024-01-27T02:18:37;3.35;;;1.50;;
21424;SDS011;10873;51.132;16.848;2024-01-27T02:21:04;4.18;;;1.60;;
21424;SDS011;10873;51.132;16.848;2024-01-27T02:23:31;5.82;;;1.70;;
21424;SDS011;10873;51.132;16.848;2024-01-27T02:25:58;3.97;;;1.55;;
21424;SDS011;10873;51.132;16.848;2024-01-27T02:28:24;5.97;;;2.00;;
21424;SDS011;10873;51.132;16.848;2024-01-27T02:30:51;6.05;;;1.70;;
21424;SDS011;10873;51.132;16.848;2024-01-27T02:33:17;4.82;;;1.80;;
21424;SDS011;10873;51.132;16.848;2024-01-27T02:35:43;5.38;;;1.92;;
21424;SDS011;10873;51.132;16.848;2024-01-27T02:38:09;3.72;;;1.65;;
21424;SDS011;10873;51.132;16.848;2024-01-27T02:40:37;3.88;;;1.52;;
21424;SDS011;10873;51.132;16.848;2024-01-27T02:43:05;6.35;;;1.90;;
21424;SDS011;10873;51.132;16.848;2024-01-27T02:45:31;4.75;;;1.50;;
21424;SDS011;10873;51.132;16.848;2024-01-27T02:47:57;5.85;;;1.90;;
21424;SDS011;10873;51.132;16.848;2024-01-27T02:50:23;4.25;;;1.70;;
21424;SDS011;10873;51.132;16.848;2024-01-27T02:52:50;4.57;;;1.58;;
21424;SDS011;10873;51.132;16.848;2024-01-27T02:55:17;5.50;;;1.77;;
21424;SDS011;10873;51.132;16.848;2024-01-27T02:57:43;6.28;;;1.77;;
21424;SDS011;10873;51.132;16.848;2024-01-27T03:00:19;6.50;;;1.90;;
21424;SDS011;10873;51.132;16.848;2024-01-27T03:02:46;3.72;;;1.58;;
21424;SDS011;10873;51.132;16.848;2024-01-27T03:05:17;5.22;;;1.55;;
21424;SDS011;10873;51.132;16.848;2024-01-27T03:07:43;4.00;;;1.48;;
21424;SDS011;10873;51.132;16.848;2024-01-27T03:10:09;4.97;;;1.58;;
21424;SDS011;10873;51.132;16.848;2024-01-27T03:12:36;5.43;;;1.90;;
21424;SDS011;10873;51.132;16.848;2024-01-27T03:15:03;4.07;;;1.63;;
21424;SDS011;10873;51.132;16.848;2024-01-27T03:17:31;5.50;;;1.90;;
21424;SDS011;10873;51.132;16.848;2024-01-27T03:19:57;6.60;;;1.80;;
21424;SDS011;10873;51.132;16.848;2024-01-27T03:22:23;4.53;;;1.60;;
21424;SDS011;10873;51.132;16.848;2024-01-27T03:24:50;4.47;;;1.52;;
21424;SDS011;10873;51.132;16.848;2024-01-27T03:27:18;4.00;;;1.80;;
21424;SDS011;10873;51.132;16.848;2024-01-27T03:29:44;6.85;;;1.70;;
21424;SDS011;10873;51.132;16.848;2024-01-27T03:32:10;6.47;;;1.85;;
21424;SDS011;10873;51.132;16.848;2024-01-27T03:34:41;4.60;;;1.55;;
21424;SDS011;10873;51.132;16.848;2024-01-27T03:37:08;4.65;;;1.80;;
21424;SDS011;10873;51.132;16.848;2024-01-27T03:39:35;3.55;;;1.60;;
21424;SDS011;10873;51.132;16.848;2024-01-27T03:42:01;5.10;;;1.80;;
21424;SDS011;10873;51.132;16.848;2024-01-27T03:44:27;5.90;;;2.00;;
21424;SDS011;10873;51.132;16.848;2024-01-27T03:46:53;5.10;;;1.73;;
21424;SDS011;10873;51.132;16.848;2024-01-27T03:49:19;6.35;;;1.90;;
21424;SDS011;10873;51.132;16.848;2024-01-27T03:51:51;5.93;;;1.73;;
21424;SDS011;10873;51.132;16.848;2024-01-27T03:54:17;6.40;;;1.98;;
21424;SDS011;10873;51.132;16.848;2024-01-27T03:56:43;5.43;;;1.45;;
21424;SDS011;10873;51.132;16.848;2024-01-27T03:59:10;6.78;;;2.00;;
21424;SDS011;10873;51.132;16.848;2024-01-27T04:01:37;4.90;;;1.60;;
21424;SDS011;10873;51.132;16.848;2024-01-27T04:04:03;6.20;;;1.90;;
21424;SDS011;10873;51.132;16.848;2024-01-27T04:06:35;5.35;;;1.88;;
21424;SDS011;10873;51.132;16.848;2024-01-27T04:09:04;5.90;;;2.00;;
21424;SDS011;10873;51.132;16.848;2024-01-27T04:11:30;4.70;;;1.52;;
21424;SDS011;10873;51.132;16.848;2024-01-27T04:13:57;4.47;;;1.48;;
21424;SDS011;10873;51.132;16.848;2024-01-27T04:16:23;6.03;;;1.88;;
21424;SDS011;10873;51.132;16.848;2024-01-27T04:18:49;6.20;;;2.10;;
21424;SDS011;10873;51.132;16.848;2024-01-27T04:21:15;3.70;;;1.42;;
21424;SDS011;10873;51.132;16.848;2024-01-27T04:23:41;6.50;;;1.80;;
21424;SDS011;10873;51.132;16.848;2024-01-27T04:26:11;5.88;;;1.50;;
21424;SDS011;10873;51.132;16.848;2024-01-27T04:28:37;4.95;;;1.63;;
21424;SDS011;10873;51.132;16.848;2024-01-27T04:31:03;4.32;;;1.70;;
21424;SDS011;10873;51.132;16.848;2024-01-27T04:33:30;5.57;;;1.95;;
21424;SDS011;10873;51.132;16.848;2024-01-27T04:35:56;4.85;;;1.48;;
21424;SDS011;10873;51.132;16.848;2024-01-27T04:38:22;3.85;;;1.35;;
21424;SDS011;10873;51.132;16.848;2024-01-27T04:40:49;7.00;;;1.60;;
21424;SDS011;10873;51.132;16.848;2024-01-27T04:43:20;6.07;;;2.03;;
21424;SDS011;10873;51.132;16.848;2024-01-27T04:45:47;6.40;;;1.77;;
21424;SDS011;10873;51.132;16.848;2024-01-27T04:48:15;6.22;;;1.60;;
21424;SDS011;10873;51.132;16.848;2024-01-27T04:50:41;4.68;;;1.45;;
21424;SDS011;10873;51.132;16.848;2024-01-27T04:53:09;4.30;;;1.60;;
21424;SDS011;10873;51.132;16.848;2024-01-27T04:55:36;5.60;;;1.55;;
21424;SDS011;10873;51.132;16.848;2024-01-27T04:58:03;4.85;;;1.40;;
21424;SDS011;10873;51.132;16.848;2024-01-27T05:00:31;4.75;;;2.05;;
21424;SDS011;10873;51.132;16.848;2024-01-27T05:02:57;6.60;;;1.65;;
21424;SDS011;10873;51.132;16.848;2024-01-27T05:05:28;5.82;;;2.10;;
21424;SDS011;10873;51.132;16.848;2024-01-27T05:07:57;4.88;;;1.40;;
21424;SDS011;10873;51.132;16.848;2024-01-27T05:10:26;4.40;;;1.63;;
21424;SDS011;10873;51.132;16.848;2024-01-27T05:13:12;5.70;;;1.73;;
21424;SDS011;10873;51.132;16.848;2024-01-27T05:15:40;3.97;;;1.45;;
21424;SDS011;10873;51.132;16.848;2024-01-27T05:18:06;4.80;;;1.80;;
21424;SDS011;10873;51.132;16.848;2024-01-27T05:20:33;7.40;;;2.08;;
21424;SDS011;10873;51.132;16.848;2024-01-27T05:23:00;5.30;;;1.63;;
21424;SDS011;10873;51.132;16.848;2024-01-27T05:25:26;4.70;;;1.50;;
21424;SDS011;10873;51.132;16.848;2024-01-27T05:27:52;6.13;;;1.70;;
21424;SDS011;10873;51.132;16.848;2024-01-27T05:30:18;4.22;;;2.00;;
21424;SDS011;10873;51.132;16.848;2024-01-27T05:32:48;4.68;;;2.00;;
21424;SDS011;10873;51.132;16.848;2024-01-27T05:35:16;4.95;;;1.75;;
21424;SDS011;10873;51.132;16.848;2024-01-27T05:37:42;6.88;;;1.90;;
21424;SDS011;10873;51.132;16.848;2024-01-27T05:40:11;5.65;;;1.80;;
21424;SDS011;10873;51.132;16.848;2024-01-27T05:42:39;5.20;;;1.95;;
21424;SDS011;10873;51.132;16.848;2024-01-27T05:45:07;4.82;;;1.85;;
21424;SDS011;10873;51.132;16.848;2024-01-27T05:47:35;5.38;;;1.65;;
21424;SDS011;10873;51.132;16.848;2024-01-27T05:50:03;6.70;;;1.80;;
21424;SDS011;10873;51.132;16.848;2024-01-27T05:52:30;6.18;;;1.98;;
21424;SDS011;10873;51.132;16.848;2024-01-27T05:54:56;5.90;;;2.08;;
21424;SDS011;10873;51.132;16.848;2024-01-27T05:57:22;5.93;;;2.17;;
21424;SDS011;10873;51.132;16.848;2024-01-27T05:59:48;5.10;;;1.65;;
21424;SDS011;10873;51.132;16.848;2024-01-27T06:02:14;6.28;;;1.90;;
21424;SDS011;10873;51.132;16.848;2024-01-27T06:04:43;4.80;;;1.70;;
21424;SDS011;10873;51.132;16.848;2024-01-27T06:07:10;7.97;;;2.30;;
21424;SDS011;10873;51.132;16.848;2024-01-27T06:09:36;6.60;;;1.88;;
21424;SDS011;10873;51.132;16.848;2024-01-27T06:12:03;4.45;;;1.83;;
21424;SDS011;10873;51.132;16.848;2024-01-27T06:14:30;4.18;;;1.60;;
21424;SDS011;10873;51.132;16.848;2024-01-27T06:16:56;4.68;;;1.80;;
21424;SDS011;10873;51.132;16.848;2024-01-27T06:19:23;5.68;;;1.92;;
21424;SDS011;10873;51.132;16.848;2024-01-27T06:21:49;5.68;;;1.80;;
21424;SDS011;10873;51.132;16.848;2024-01-27T06:24:16;5.72;;;1.73;;
21424;SDS011;10873;51.132;16.848;2024-01-27T06:26:43;5.50;;;2.08;;
21424;SDS011;10873;51.132;16.848;2024-01-27T06:29:09;6.88;;;2.38;;
21424;SDS011;10873;51.132;16.848;2024-01-27T06:31:35;4.75;;;1.85;;
21424;SDS011;10873;51.132;16.848;2024-01-27T06:34:01;9.55;;;1.80;;
21424;SDS011;10873;51.132;16.848;2024-01-27T06:36:27;5.00;;;1.90;;
21424;SDS011;10873;51.132;16.848;2024-01-27T06:38:53;7.43;;;2.00;;
21424;SDS011;10873;51.132;16.848;2024-01-27T06:41:21;5.22;;;2.00;;
21424;SDS011;10873;51.132;16.848;2024-01-27T06:43:47;8.68;;;2.17;;
21424;SDS011;10873;51.132;16.848;2024-01-27T06:46:14;7.15;;;2.45;;
21424;SDS011;10873;51.132;16.848;2024-01-27T06:48:40;5.88;;;2.20;;
21424;SDS011;10873;51.132;16.848;2024-01-27T06:51:06;4.95;;;2.25;;
21424;SDS011;10873;51.132;16.848;2024-01-27T06:53:32;7.25;;;2.60;;
21424;SDS011;10873;51.132;16.848;2024-01-27T06:55:59;6.45;;;2.20;;
21424;SDS011;10873;51.132;16.848;2024-01-27T06:58:26;5.28;;;2.35;;
21424;SDS011;10873;51.132;16.848;2024-01-27T07:00:52;6.53;;;2.08;;
21424;SDS011;10873;51.132;16.848;2024-01-27T07:03:19;6.10;;;1.85;;
21424;SDS011;10873;51.132;16.848;2024-01-27T07:05:48;6.40;;;2.33;;
21424;SDS011;10873;51.132;16.848;2024-01-27T07:08:14;8.82;;;2.47;;
21424;SDS011;10873;51.132;16.848;2024-01-27T07:10:40;4.50;;;1.70;;
21424;SDS011;10873;51.132;16.848;2024-01-27T07:13:06;5.90;;;2.30;;
21424;SDS011;10873;51.132;16.848;2024-01-27T07:15:34;5.78;;;2.05;;
21424;SDS011;10873;51.132;16.848;2024-01-27T07:18:03;7.72;;;2.22;;
21424;SDS011;10873;51.132;16.848;2024-01-27T07:20:30;5.22;;;2.20;;
21424;SDS011;10873;51.132;16.848;2024-01-27T07:22:56;6.63;;;1.85;;
21424;SDS011;10873;51.132;16.848;2024-01-27T07:25:22;6.20;;;1.98;;
21424;SDS011;10873;51.132;16.848;2024-01-27T07:27:48;7.18;;;1.85;;
21424;SDS011;10873;51.132;16.848;2024-01-27T07:30:15;6.70;;;2.17;;
21424;SDS011;10873;51.132;16.848;2024-01-27T07:32:42;7.18;;;2.03;;
21424;SDS011;10873;51.132;16.848;2024-01-27T07:35:09;6.63;;;1.98;;
21424;SDS011;10873;51.132;16.848;2024-01-27T07:37:37;7.60;;;2.42;;
21424;SDS011;10873;51.132;16.848;2024-01-27T07:40:03;5.38;;;2.20;;
21424;SDS011;10873;51.132;16.848;2024-01-27T07:42:30;6.13;;;2.10;;
21424;SDS011;10873;51.132;16.848;2024-01-27T07:44:57;5.07;;;2.05;;
21424;SDS011;10873;51.132;16.848;2024-01-27T07:47:23;7.53;;;2.40;;
21424;SDS011;10873;51.132;16.848;2024-01-27T07:49:50;8.32;;;2.20;;
21424;SDS011;10873;51.132;16.848;2024-01-27T07:52:16;7.70;;;2.40;;
21424;SDS011;10873;51.132;16.848;2024-01-27T07:54:42;25.35;;;2.65;;
21424;SDS011;10873;51.132;16.848;2024-01-27T07:57:11;10.68;;;2.88;;
21424;SDS011;10873;51.132;16.848;2024-01-27T07:59:38;10.55;;;2.65;;
21424;SDS011;10873;51.132;16.848;2024-01-27T08:02:04;18.92;;;3.28;;
21424;SDS011;10873;51.132;16.848;2024-01-27T08:04:31;9.13;;;2.65;;
21424;SDS011;10873;51.132;16.848;2024-01-27T08:07:02;14.80;;;3.10;;
21424;SDS011;10873;51.132;16.848;2024-01-27T08:09:35;8.82;;;2.70;;
21424;SDS011;10873;51.132;16.848;2024-01-27T08:12:01;9.48;;;2.22;;
21424;SDS011;10873;51.132;16.848;2024-01-27T08:14:30;8.80;;;2.67;;
21424;SDS011;10873;51.132;16.848;2024-01-27T08:16:56;10.15;;;2.75;;
21424;SDS011;10873;51.132;16.848;2024-01-27T08:19:23;7.47;;;2.50;;
21424;SDS011;10873;51.132;16.848;2024-01-27T08:21:49;8.88;;;2.50;;
21424;SDS011;10873;51.132;16.848;2024-01-27T08:24:17;9.13;;;2.88;;
21424;SDS011;10873;51.132;16.848;2024-01-27T08:26:43;7.10;;;2.55;;
21424;SDS011;10873;51.132;16.848;2024-01-27T08:29:10;11.77;;;2.92;;
21424;SDS011;10873;51.132;16.848;2024-01-27T08:31:36;11.18;;;3.05;;
21424;SDS011;10873;51.132;16.848;2024-01-27T08:34:05;12.32;;;2.83;;
21424;SDS011;10873;51.132;16.848;2024-01-27T08:36:31;9.73;;;2.85;;
21424;SDS011;10873;51.132;16.848;2024-01-27T08:38:59;7.55;;;2.63;;
21424;SDS011;10873;51.132;16.848;2024-01-27T08:41:26;6.97;;;2.40;;
21424;SDS011;10873;51.132;16.848;2024-01-27T08:43:54;7.10;;;2.72;;
21424;SDS011;10873;51.132;16.848;2024-01-27T08:46:20;6.63;;;2.22;;
21424;SDS011;10873;51.132;16.848;2024-01-27T08:48:48;10.18;;;3.38;;
21424;SDS011;10873;51.132;16.848;2024-01-27T08:51:16;8.25;;;3.03;;
21424;SDS011;10873;51.132;16.848;2024-01-27T08:53:43;11.98;;;3.60;;
21424;SDS011;10873;51.132;16.848;2024-01-27T08:56:16;8.57;;;3.38;;
21424;SDS011;10873;51.132;16.848;2024-01-27T08:58:47;10.85;;;2.83;;
21424;SDS011;10873;51.132;16.848;2024-01-27T09:01:13;12.30;;;3.35;;
21424;SDS011;10873;51.132;16.848;2024-01-27T09:03:41;9.32;;;3.78;;
21424;SDS011;10873;51.132;16.848;2024-01-27T09:06:07;11.00;;;3.40;;
21424;SDS011;10873;51.132;16.848;2024-01-27T09:08:33;9.05;;;2.90;;
21424;SDS011;10873;51.132;16.848;2024-01-27T09:11:00;10.18;;;3.03;;
21424;SDS011;10873;51.132;16.848;2024-01-27T09:13:27;8.57;;;3.28;;
21424;SDS011;10873;51.132;16.848;2024-01-27T09:15:56;7.38;;;3.13;;
21424;SDS011;10873;51.132;16.848;2024-01-27T09:18:24;7.13;;;2.60;;
21424;SDS011;10873;51.132;16.848;2024-01-27T09:20:50;12.35;;;3.60;;
21424;SDS011;10873;51.132;16.848;2024-01-27T09:23:16;11.95;;;4.78;;
21424;SDS011;10873;51.132;16.848;2024-01-27T09:25:42;14.20;;;6.20;;
21424;SDS011;10873;51.132;16.848;2024-01-27T09:28:09;14.18;;;5.88;;
21424;SDS011;10873;51.132;16.848;2024-01-27T09:30:34;10.15;;;4.80;;
21424;SDS011;10873;51.132;16.848;2024-01-27T09:33:02;10.98;;;4.43;;
21424;SDS011;10873;51.132;16.848;2024-01-27T09:35:28;8.95;;;4.10;;
21424;SDS011;10873;51.132;16.848;2024-01-27T09:37:54;14.57;;;4.03;;
21424;SDS011;10873;51.132;16.848;2024-01-27T09:40:21;8.98;;;3.55;;
21424;SDS011;10873;51.132;16.848;2024-01-27T09:42:50;9.30;;;2.90;;
21424;SDS011;10873;51.132;16.848;2024-01-27T09:45:20;8.27;;;3.30;;
21424;SDS011;10873;51.132;16.848;2024-01-27T09:47:48;9.27;;;2.90;;
21424;SDS011;10873;51.132;16.848;2024-01-27T09:50:18;9.13;;;2.95;;
21424;SDS011;10873;51.132;16.848;2024-01-27T09:52:45;8.23;;;2.35;;
21424;SDS011;10873;51.132;16.848;2024-01-27T09:55:11;9.27;;;2.67;;
21424;SDS011;10873;51.132;16.848;2024-01-27T09:57:37;7.88;;;2.40;;
21424;SDS011;10873;51.132;16.848;2024-01-27T10:00:06;7.32;;;2.50;;
21424;SDS011;10873;51.132;16.848;2024-01-27T10:02:37;6.13;;;2.15;;
21424;SDS011;10873;51.132;16.848;2024-01-27T10:05:06;6.53;;;2.60;;
21424;SDS011;10873;51.132;16.848;2024-01-27T10:07:35;7.45;;;2.40;;
21424;SDS011;10873;51.132;16.848;2024-01-27T10:10:01;9.80;;;3.20;;
21424;SDS011;10873;51.132;16.848;2024-01-27T10:12:29;9.13;;;2.80;;
21424;SDS011;10873;51.132;16.848;2024-01-27T10:14:57;9.82;;;2.90;;
21424;SDS011;10873;51.132;16.848;2024-01-27T10:17:24;9.00;;;2.28;;
21424;SDS011;10873;51.132;16.848;2024-01-27T10:20:01;7.78;;;2.72;;
21424;SDS011;10873;51.132;16.848;2024-01-27T10:22:42;7.95;;;2.40;;
21424;SDS011;10873;51.132;16.848;2024-01-27T10:25:10;6.80;;;2.30;;
21424;SDS011;10873;51.132;16.848;2024-01-27T10:27:36;5.72;;;2.15;;
21424;SDS011;10873;51.132;16.848;2024-01-27T10:30:03;8.98;;;2.40;;
21424;SDS011;10873;51.132;16.848;2024-01-27T10:32:30;9.48;;;2.58;;
21424;SDS011;10873;51.132;16.848;2024-01-27T10:35:02;8.25;;;2.60;;
21424;SDS011;10873;51.132;16.848;2024-01-27T10:37:29;6.38;;;2.20;;
21424;SDS011;10873;51.132;16.848;2024-01-27T10:40:04;10.02;;;2.70;;
21424;SDS011;10873;51.132;16.848;2024-01-27T10:42:36;8.95;;;3.05;;
21424;SDS011;10873;51.132;16.848;2024-01-27T10:45:03;16.40;;;3.08;;
21424;SDS011;10873;51.132;16.848;2024-01-27T10:47:31;12.15;;;3.05;;
21424;SDS011;10873;51.132;16.848;2024-01-27T10:50:01;8.27;;;2.85;;
21424;SDS011;10873;51.132;16.848;2024-01-27T10:52:29;7.28;;;2.67;;
21424;SDS011;10873;51.132;16.848;2024-01-27T10:54:58;11.50;;;3.03;;
21424;SDS011;10873;51.132;16.848;2024-01-27T10:57:30;8.82;;;3.38;;
21424;SDS011;10873;51.132;16.848;2024-01-27T10:59:58;11.45;;;2.92;;
21424;SDS011;10873;51.132;16.848;2024-01-27T11:02:25;7.60;;;2.83;;
21424;SDS011;10873;51.132;16.848;2024-01-27T11:04:53;8.38;;;2.47;;
21424;SDS011;10873;51.132;16.848;2024-01-27T11:07:21;16.23;;;3.03;;
21424;SDS011;10873;51.132;16.848;2024-01-27T11:09:49;7.30;;;2.83;;
21424;SDS011;10873;51.132;16.848;2024-01-27T11:12:19;8.00;;;2.58;;
21424;SDS011;10873;51.132;16.848;2024-01-27T11:14:49;8.52;;;2.88;;
21424;SDS011;10873;51.132;16.848;2024-01-27T11:17:24;11.63;;;4.90;;
21424;SDS011;10873;51.132;16.848;2024-01-27T11:19:53;10.68;;;4.70;;
21424;SDS011;10873;51.132;16.848;2024-01-27T11:22:25;14.75;;;6.15;;
21424;SDS011;10873;51.132;16.848;2024-01-27T11:24:52;11.57;;;4.10;;
21424;SDS011;10873;51.132;16.848;2024-01-27T11:27:18;11.05;;;4.20;;
21424;SDS011;10873;51.132;16.848;2024-01-27T11:29:55;9.05;;;3.60;;
21424;SDS011;10873;51.132;16.848;2024-01-27T11:32:22;8.80;;;3.53;;
21424;SDS011;10873;51.132;16.848;2024-01-27T11:34:48;9.07;;;3.40;;
21424;SDS011;10873;51.132;16.848;2024-01-27T11:37:15;5.95;;;2.53;;
21424;SDS011;10873;51.132;16.848;2024-01-27T11:39:41;7.47;;;2.78;;
21424;SDS011;10873;51.132;16.848;2024-01-27T11:42:08;9.02;;;2.40;;
21424;SDS011;10873;51.132;16.848;2024-01-27T11:47:39;6.80;;;2.50;;
21424;SDS011;10873;51.132;16.848;2024-01-27T11:50:06;7.30;;;2.50;;
21424;SDS011;10873;51.132;16.848;2024-01-27T11:52:35;22.27;;;3.10;;
21424;SDS011;10873;51.132;16.848;2024-01-27T11:55:01;12.90;;;2.58;;
21424;SDS011;10873;51.132;16.848;2024-01-27T11:57:27;10.35;;;2.70;;
21424;SDS011;10873;51.132;16.848;2024-01-27T11:59:53;14.35;;;2.90;;
21424;SDS011;10873;51.132;16.848;2024-01-27T12:02:21;7.55;;;2.00;;
21424;SDS011;10873;51.132;16.848;2024-01-27T12:04:47;10.77;;;2.45;;
21424;SDS011;10873;51.132;16.848;2024-01-27T12:07:15;8.18;;;2.58;;
21424;SDS011;10873;51.132;16.848;2024-01-27T12:09:44;10.05;;;2.90;;
21424;SDS011;10873;51.132;16.848;2024-01-27T12:12:10;14.57;;;3.83;;
21424;SDS011;10873;51.132;16.848;2024-01-27T12:14:38;9.85;;;3.22;;
21424;SDS011;10873;51.132;16.848;2024-01-27T12:17:07;8.20;;;3.03;;
21424;SDS011;10873;51.132;16.848;2024-01-27T12:22:34;11.52;;;3.08;;
21424;SDS011;10873;51.132;16.848;2024-01-27T12:25:08;9.65;;;2.78;;
21424;SDS011;10873;51.132;16.848;2024-01-27T12:27:35;6.00;;;2.20;;
21424;SDS011;10873;51.132;16.848;2024-01-27T12:30:04;11.23;;;2.28;;
21424;SDS011;10873;51.132;16.848;2024-01-27T12:32:42;10.05;;;2.92;;
21424;SDS011;10873;51.132;16.848;2024-01-27T12:35:28;7.82;;;2.30;;
21424;SDS011;10873;51.132;16.848;2024-01-27T12:38:01;10.55;;;2.33;;
21424;SDS011;10873;51.132;16.848;2024-01-27T12:40:32;7.90;;;2.42;;
21424;SDS011;10873;51.132;16.848;2024-01-27T12:42:59;10.95;;;2.28;;
21424;SDS011;10873;51.132;16.848;2024-01-27T12:45:32;9.40;;;2.45;;
21424;SDS011;10873;51.132;16.848;2024-01-27T12:48:00;8.13;;;2.70;;
21424;SDS011;10873;51.132;16.848;2024-01-27T12:50:37;8.70;;;2.80;;
21424;SDS011;10873;51.132;16.848;2024-01-27T12:53:08;8.65;;;2.47;;
21424;SDS011;10873;51.132;16.848;2024-01-27T12:55:39;7.93;;;2.63;;
21424;SDS011;10873;51.132;16.848;2024-01-27T12:58:06;12.93;;;2.88;;
21424;SDS011;10873;51.132;16.848;2024-01-27T13:00:35;10.45;;;2.88;;
21424;SDS011;10873;51.132;16.848;2024-01-27T13:03:03;8.13;;;2.47;;
21424;SDS011;10873;51.132;16.848;2024-01-27T13:05:40;11.90;;;3.00;;
21424;SDS011;10873;51.132;16.848;2024-01-27T13:08:07;7.05;;;2.33;;
21424;SDS011;10873;51.132;16.848;2024-01-27T13:10:41;9.98;;;2.83;;
21424;SDS011;10873;51.132;16.848;2024-01-27T13:13:08;10.25;;;2.42;;
21424;SDS011;10873;51.132;16.848;2024-01-27T13:15:34;8.10;;;2.50;;
21424;SDS011;10873;51.132;16.848;2024-01-27T13:18:04;9.93;;;2.72;;
21424;SDS011;10873;51.132;16.848;2024-01-27T13:20:32;8.82;;;2.30;;
21424;SDS011;10873;51.132;16.848;2024-01-27T13:23:06;6.07;;;2.08;;
21424;SDS011;10873;51.132;16.848;2024-01-27T13:25:34;10.40;;;2.38;;
21424;SDS011;10873;51.132;16.848;2024-01-27T13:28:02;6.72;;;2.33;;
21424;SDS011;10873;51.132;16.848;2024-01-27T13:30:32;8.73;;;2.40;;
21424;SDS011;10873;51.132;16.848;2024-01-27T13:32:58;6.43;;;2.03;;
21424;SDS011;10873;51.132;16.848;2024-01-27T13:35:25;9.27;;;2.60;;
21424;SDS011;10873;51.132;16.848;2024-01-27T13:37:52;6.47;;;2.30;;
21424;SDS011;10873;51.132;16.848;2024-01-27T13:40:18;8.40;;;2.50;;
21424;SDS011;10873;51.132;16.848;2024-01-27T13:42:46;8.77;;;2.70;;
21424;SDS011;10873;51.132;16.848;2024-01-27T13:45:13;8.80;;;2.72;;
21424;SDS011;10873;51.132;16.848;2024-01-27T13:47:44;8.32;;;2.40;;
21424;SDS011;10873;51.132;16.848;2024-01-27T13:50:11;7.72;;;2.40;;
21424;SDS011;10873;51.132;16.848;2024-01-27T13:52:37;8.07;;;2.40;;
21424;SDS011;10873;51.132;16.848;2024-01-27T13:55:03;10.85;;;2.90;;
21424;SDS011;10873;51.132;16.848;2024-01-27T13:57:30;9.13;;;2.28;;
21424;SDS011;10873;51.132;16.848;2024-01-27T13:59:57;6.65;;;2.70;;
21424;SDS011;10873;51.132;16.848;2024-01-27T14:02:24;6.80;;;2.60;;
21424;SDS011;10873;51.132;16.848;2024-01-27T14:04:51;9.27;;;3.13;;
21424;SDS011;10873;51.132;16.848;2024-01-27T14:07:18;9.35;;;2.63;;
21424;SDS011;10873;51.132;16.848;2024-01-27T14:09:44;7.18;;;2.83;;
21424;SDS011;10873;51.132;16.848;2024-01-27T14:12:11;8.77;;;2.25;;
21424;SDS011;10873;51.132;16.848;2024-01-27T14:14:37;9.18;;;3.70;;
21424;SDS011;10873;51.132;16.848;2024-01-27T14:17:07;9.48;;;3.25;;
21424;SDS011;10873;51.132;16.848;2024-01-27T14:19:33;9.38;;;3.08;;
21424;SDS011;10873;51.132;16.848;2024-01-27T14:21:59;8.35;;;3.03;;
21424;SDS011;10873;51.132;16.848;2024-01-27T14:24:27;8.75;;;2.75;;
21424;SDS011;10873;51.132;16.848;2024-01-27T14:26:53;9.95;;;3.28;;
21424;SDS011;10873;51.132;16.848;2024-01-27T14:29:20;10.05;;;3.28;;
21424;SDS011;10873;51.132;16.848;2024-01-27T14:31:47;10.57;;;3.42;;
21424;SDS011;10873;51.132;16.848;2024-01-27T14:34:15;8.85;;;3.05;;
21424;SDS011;10873;51.132;16.848;2024-01-27T14:36:41;8.45;;;2.85;;
21424;SDS011;10873;51.132;16.848;2024-01-27T14:39:09;10.35;;;3.03;;
21424;SDS011;10873;51.132;16.848;2024-01-27T14:41:37;9.13;;;2.70;;